Time;durP1;ratioP1;P1;durP2;ratioP2;P2;SDS_P1;SDS_P2;PMS_P1;PMS_P2;Temp;Humidity;BMP_temperature;BMP_pressure;BME280_temperature;BME280_humidity;BME280_pressure;Samples;Min_cycle;Max_cycle;Signal;HPM_P1;HPM_P2
2022/03/17 00:02:49;;;;;;;;;;;;;;;-4.74;60.77;102526.45;1807854;79;20588;-58
2022/03/17 00:05:34;;;;;;;;;;;;;;;-4.71;60.93;102534.89;1807707;78;20494;-58
2022/03/17 00:08:26;;;;;;;;;;;;;;;-4.71;60.96;102526.39;1808009;79;20205;-59
2022/03/17 00:11:31;;;;;;;;;;;;;;;-4.71;61.11;102531.73;1807709;79;20557;-59
2022/03/17 00:14:37;;;;;;;;;;;;;;;-4.70;61.26;102524.17;1808045;79;20253;-58
2022/03/17 00:17:41;;;;;;;;;;;;;;;-4.64;61.24;102522.72;1808024;79;20502;-60
2022/03/17 00:20:46;;;;;;;;;;;;;;;-4.62;61.17;102526.25;1807990;79;20190;-59
2022/03/17 00:23:52;;;;;;;;;;;;;;;-4.56;61.12;102519.89;1808044;79;20493;-59
2022/03/17 00:26:59;;;;;;;;;;;;;;;-4.56;61.00;102518.56;1807771;79;20237;-59
2022/03/17 00:30:06;;;;;;;;;;;;;;;-4.58;60.89;102514.17;1807689;79;20193;-60
2022/03/17 00:33:11;;;;;;;;;;;;;;;-4.58;60.79;102515.03;1789827;79;20244;-59
2022/03/17 00:36:16;;;;;;;;;;;;;;;-4.61;60.77;102528.45;1789759;79;20220;-59
2022/03/17 00:39:21;;;;;;;;;;;;;;;-4.65;60.84;102526.76;1808035;79;20254;-59
2022/03/17 00:42:27;;;;;;;;;;;;;;;-4.71;60.93;102520.20;1808028;79;20542;-60
2022/03/17 00:45:33;;;;;;;;;;;;;;;-4.76;61.02;102521.59;1808291;78;20216;-58
2022/03/17 00:48:38;;;;;;;;;;;;;;;-4.73;61.27;102526.91;1808281;79;20285;-59
2022/03/17 00:51:45;;;;;;;;;;;;;;;-4.75;61.31;102526.04;1808284;79;20193;-59
2022/03/17 00:54:49;;;;;;;;;;;;;;;-4.79;61.39;102526.98;1808057;79;20197;-58
2022/03/17 00:57:54;;;;;;;;;;;;;;;-4.86;61.66;102534.70;1807425;79;20221;-59
2022/03/17 01:01:00;;;;;;;;;;;;;;;-4.89;61.91;102533.86;1807407;78;20216;-58
2022/03/17 01:04:04;;;;;;;;;;;;;;;-4.90;62.17;102532.97;1795004;79;20198;-58
2022/03/17 01:07:09;;;;;;;;;;;;;;;-4.88;62.30;102527.16;1791712;80;20582;-59
2022/03/17 01:10:18;;;;;;;;;;;;;;;-4.86;62.37;102524.02;1803732;79;20177;-59
2022/03/17 01:13:24;;;;;;;;;;;;;;;-4.84;62.34;102520.88;1807384;79;20239;-59
2022/03/17 01:16:29;;;;;;;;;;;;;;;-4.85;62.40;102522.20;1807465;79;20223;-59
2022/03/17 01:19:35;;;;;;;;;;;;;;;-4.88;62.57;102527.59;1807409;78;20186;-59
2022/03/17 01:22:41;;;;;;;;;;;;;;;-4.86;62.67;102529.80;1789784;79;20193;-59
2022/03/17 01:25:46;;;;;;;;;;;;;;;-4.88;62.70;102528.49;1769148;81;20204;-59
2022/03/17 01:28:50;;;;;;;;;;;;;;;-4.90;62.76;102526.29;1758750;81;20196;-60
2022/03/17 01:31:55;;;;;;;;;;;;;;;-4.92;62.87;102528.13;1764275;80;20200;-60
2022/03/17 01:34:59;;;;;;;;;;;;;;;-4.94;62.88;102528.61;1764155;81;20188;-59
2022/03/17 01:38:05;;;;;;;;;;;;;;;-4.96;62.91;102533.08;1768757;81;20532;-59
2022/03/17 01:41:11;;;;;;;;;;;;;;;-4.94;62.96;102529.94;1807413;79;20233;-59
2022/03/17 01:44:16;;;;;;;;;;;;;;;-4.96;62.93;102527.73;1807431;78;20525;-59
2022/03/17 01:47:27;;;;;;;;;;;;;;;-4.98;62.90;102538.89;1804492;79;20325;-59
2022/03/17 01:50:32;;;;;;;;;;;;;;;-5.00;62.88;102530.49;1807411;78;20186;-60
2022/03/17 01:53:37;;;;;;;;;;;;;;;-5.02;62.92;102534.52;1807422;79;20177;-60
2022/03/17 01:56:44;;;;;;;;;;;;;;;-5.02;62.88;102543.87;1807501;79;20374;-60
2022/03/17 01:59:50;;;;;;;;;;;;;;;-5.03;62.93;102544.78;1807457;78;20513;-59
2022/03/17 02:02:59;;;;;;;;;;;;;;;-5.02;62.95;102545.20;1807501;79;20252;-59
2022/03/17 02:06:03;;;;;;;;;;;;;;;-5.00;62.93;102543.40;1807388;78;20225;-60
2022/03/17 02:09:07;;;;;;;;;;;;;;;-4.93;62.92;102553.05;1807208;79;20224;-59
2022/03/17 02:15:36;;;;;;;;;;;;;;;-4.85;62.66;102552.91;1784898;79;20245;-58
2022/03/17 02:18:41;;;;;;;;;;;;;;;-4.85;62.44;102555.14;1807470;79;20209;-59
2022/03/17 02:21:48;;;;;;;;;;;;;;;-4.91;62.36;102553.92;1789646;79;20225;-59
2022/03/17 02:28:14;;;;;;;;;;;;;;;-5.02;62.39;102563.89;1807386;79;20202;-60
2022/03/17 02:31:19;;;;;;;;;;;;;;;-5.10;62.43;102562.23;1807423;79;20276;-59
2022/03/17 02:34:24;;;;;;;;;;;;;;;-5.18;62.64;102566.38;1807398;79;20193;-59
2022/03/17 02:37:29;;;;;;;;;;;;;;;-5.21;62.81;102564.20;1807497;79;20293;-59
2022/03/17 02:40:32;;;;;;;;;;;;;;;-5.21;62.96;102562.86;1807464;78;20201;-60
2022/03/17 02:43:38;;;;;;;;;;;;;;;-5.19;63.10;102557.05;1807404;79;20197;-60
2022/03/17 02:46:43;;;;;;;;;;;;;;;-5.13;63.10;102566.30;1804570;79;20226;-60
2022/03/17 02:49:48;;;;;;;;;;;;;;;-5.08;63.07;102557.77;1807395;78;20177;-59
2022/03/17 02:52:53;;;;;;;;;;;;;;;-5.10;62.95;102554.23;1807448;79;20268;-60
2022/03/17 02:55:58;;;;;;;;;;;;;;;-5.09;62.96;102559.55;1807362;78;20233;-60
2022/03/17 02:59:03;;;;;;;;;;;;;;;-5.10;62.82;102556.45;1807317;78;20201;-60
2022/03/17 03:02:08;;;;;;;;;;;;;;;-5.13;62.77;102561.85;1807390;79;20182;-60
2022/03/17 03:05:15;;;;;;;;;;;;;;;-5.23;62.76;102554.88;1807472;78;20291;-58
2022/03/17 03:08:19;;;;;;;;;;;;;;;-5.27;62.93;102560.29;1807385;79;20229;-60
2022/03/17 03:11:23;;;;;;;;;;;;;;;-5.31;63.09;102552.78;1807308;79;20233;-60
2022/03/17 03:14:26;;;;;;;;;;;;;;;-5.29;63.27;102553.64;1807394;78;20190;-60
2022/03/17 03:17:33;;;;;;;;;;;;;;;-5.30;63.29;102549.67;1799355;79;20244;-60
2022/03/17 03:20:39;;;;;;;;;;;;;;;-5.29;63.21;102550.97;1788801;79;20209;-61
2022/03/17 03:23:43;;;;;;;;;;;;;;;-5.33;63.20;102559.95;1807415;79;20229;-61
2022/03/17 03:26:48;;;;;;;;;;;;;;;-5.39;63.21;102550.67;1789210;79;20224;-59
2022/03/17 03:29:53;;;;;;;;;;;;;;;-5.51;63.25;102561.98;1807364;78;20201;-58
2022/03/17 03:32:59;;;;;;;;;;;;;;;-5.55;63.56;102558.47;1807096;79;20289;-59
2022/03/17 03:39:27;;;;;;;;;;;;;;;-5.58;63.77;102558.52;1807156;79;20182;-60
2022/03/17 03:42:33;;;;;;;;;;;;;;;-5.65;63.86;102560.85;1807360;79;20193;-60
2022/03/17 03:45:38;;;;;;;;;;;;;;;-5.69;64.01;102563.11;1807391;79;20206;-60
2022/03/17 03:48:44;;;;;;;;;;;;;;;-5.71;64.10;102559.61;1805896;79;20177;-59
2022/03/17 03:51:50;;;;;;;;;;;;;;;-5.71;64.21;102566.28;1788961;79;20213;-60
2022/03/17 03:54:54;;;;;;;;;;;;;;;-5.74;64.23;102565.42;1807161;79;20206;-60
2022/03/17 03:58:00;;;;;;;;;;;;;;;-5.78;64.36;102575.25;1768866;81;20227;-59
2022/03/17 04:01:06;;;;;;;;;;;;;;;-5.76;64.43;102578.78;1807199;79;20535;-59
2022/03/17 04:04:18;;;;;;;;;;;;;;;-5.78;64.46;102581.02;1807421;79;20225;-58
2022/03/17 04:07:22;;;;;;;;;;;;;;;-5.79;64.60;102580.60;1807299;79;20201;-61
2022/03/17 04:10:27;;;;;;;;;;;;;;;-5.82;64.65;102586.02;1807455;79;20201;-60
2022/03/17 04:13:32;;;;;;;;;;;;;;;-5.83;64.75;102586.89;1807356;79;20236;-60
2022/03/17 04:16:38;;;;;;;;;;;;;;;-5.79;64.86;102595.27;1768854;81;20204;-60
2022/03/17 04:19:44;;;;;;;;;;;;;;;-5.72;64.93;102585.83;1807028;79;20256;-60
2022/03/17 04:22:49;;;;;;;;;;;;;;;-5.68;64.82;102588.91;1807337;79;20185;-59
2022/03/17 04:25:53;;;;;;;;;;;;;;;-5.68;64.67;102588.91;1807359;79;20525;-59
2022/03/17 04:28:58;;;;;;;;;;;;;;;-5.67;64.74;102582.66;1807338;79;20530;-59
2022/03/17 04:32:07;;;;;;;;;;;;;;;-5.62;64.76;102586.15;1807420;79;20221;-59
2022/03/17 04:35:13;;;;;;;;;;;;;;;-5.62;64.75;102579.48;1807455;79;20535;-57
2022/03/17 04:38:20;;;;;;;;;;;;;;;-5.57;64.78;102581.64;1807447;79;20233;-59
2022/03/17 04:41:24;;;;;;;;;;;;;;;-5.50;64.60;102585.11;1768812;81;20187;-59
2022/03/17 04:44:30;;;;;;;;;;;;;;;-5.45;64.36;102584.12;1807216;78;20284;-60
2022/03/17 04:47:35;;;;;;;;;;;;;;;-5.41;64.15;102589.86;1807433;79;20221;-61
2022/03/17 04:50:41;;;;;;;;;;;;;;;-5.34;63.83;102586.63;1805592;79;20268;-58
2022/03/17 04:53:46;;;;;;;;;;;;;;;-5.29;63.69;102591.01;1807544;79;20537;-60
2022/03/17 04:56:52;;;;;;;;;;;;;;;-5.23;63.53;102588.24;1807412;79;20293;-60
2022/03/17 04:59:56;;;;;;;;;;;;;;;-5.14;63.36;102589.47;1768628;81;20204;-60
2022/03/17 05:03:03;;;;;;;;;;;;;;;-5.06;63.13;102587.53;1789538;79;20293;-60
2022/03/17 05:06:09;;;;;;;;;;;;;;;-4.96;62.86;102594.50;1775093;79;20247;-58
2022/03/17 05:09:13;;;;;;;;;;;;;;;-4.86;62.39;102600.57;1695626;82;20220;-59
2022/03/17 05:12:18;;;;;;;;;;;;;;;-4.77;62.21;102607.09;1775038;81;20298;-59
2022/03/17 05:15:22;;;;;;;;;;;;;;;-4.71;61.47;102617.23;1775361;79;20300;-58
2022/03/17 05:18:27;;;;;;;;;;;;;;;-4.73;61.11;102611.49;1775805;80;20195;-61
2022/03/17 05:21:34;;;;;;;;;;;;;;;-4.68;61.14;102613.64;1775669;81;20208;-59
2022/03/17 05:24:41;;;;;;;;;;;;;;;-4.59;60.94;102610.80;1774656;79;20207;-59
2022/03/17 05:27:50;;;;;;;;;;;;;;;-4.48;60.71;102616.84;1774649;81;20207;-59
2022/03/17 05:30:54;;;;;;;;;;;;;;;-4.37;59.79;102621.98;1774661;79;20212;-59
2022/03/17 05:33:58;;;;;;;;;;;;;;;-4.33;59.35;102622.38;1758227;81;20211;-59
2022/03/17 05:37:03;;;;;;;;;;;;;;;-4.33;58.42;102629.06;1774967;81;20299;-60
2022/03/17 05:40:14;;;;;;;;;;;;;;;-4.31;58.28;102621.91;1775594;79;20187;-59
2022/03/17 05:43:18;;;;;;;;;;;;;;;-4.31;57.96;102613.89;1775799;81;20523;-60
2022/03/17 05:46:27;;;;;;;;;;;;;;;-4.27;57.73;102608.89;1778963;79;20184;-59
2022/03/17 05:49:32;;;;;;;;;;;;;;;-4.21;57.56;102624.38;1774816;79;20531;-60
2022/03/17 05:52:39;;;;;;;;;;;;;;;-4.08;57.17;102637.06;1775820;81;20211;-60
2022/03/17 05:55:45;;;;;;;;;;;;;;;-4.11;56.28;102629.09;1775676;79;20697;-60
2022/03/17 05:58:50;;;;;;;;;;;;;;;-4.09;56.24;102611.23;1775647;81;20227;-60
2022/03/17 06:01:59;;;;;;;;;;;;;;;-4.02;56.40;102614.20;1779630;79;20265;-59
2022/03/17 06:05:05;;;;;;;;;;;;;;;-3.92;55.67;102622.48;1783530;79;20260;-59
2022/03/17 06:08:10;;;;;;;;;;;;;;;-3.87;55.62;102620.61;1774062;81;20508;-59
2022/03/17 06:11:21;;;;;;;;;;;;;;;-3.79;55.28;102617.33;1791176;79;20621;-60
2022/03/17 06:14:27;;;;;;;;;;;;;;;-3.73;54.88;102618.53;1805999;78;20236;-58
2022/03/17 06:17:50;;;;;;;;;;;;;;;-3.69;54.37;102621.11;1795734;79;20572;-59
2022/03/17 06:20:57;;;;;;;;;;;;;;;-3.69;54.08;102624.23;1773688;79;20259;-59
2022/03/17 06:24:02;;;;;;;;;;;;;;;-3.67;54.00;102617.06;1790179;79;20628;-59
2022/03/17 06:27:10;;;;;;;;;;;;;;;-3.65;53.84;102616.14;1778908;79;20213;-59
2022/03/17 06:30:21;;;;;;;;;;;;;;;-3.55;53.79;102626.20;1788604;79;20599;-60
2022/03/17 06:33:32;;;;;;;;;;;;;;;-3.47;53.53;102610.38;1772961;81;20219;-60
2022/03/17 06:36:35;;;;;;;;;;;;;;;-3.37;53.06;102623.99;1803777;79;20473;-60
2022/03/17 06:39:43;;;;;;;;;;;;;;;-3.33;53.01;102612.28;1792547;79;20307;-59
2022/03/17 06:42:52;;;;;;;;;;;;;;;-3.26;52.91;102614.38;1729354;82;20250;-60
2022/03/17 06:45:56;;;;;;;;;;;;;;;-3.12;52.66;102621.64;1777282;79;20209;-57
2022/03/17 06:49:02;;;;;;;;;;;;;;;-3.07;52.26;102626.44;1773888;80;20218;-59
2022/03/17 06:52:07;;;;;;;;;;;;;;;-3.04;52.21;102615.64;1774379;79;20202;-59
2022/03/17 06:55:12;;;;;;;;;;;;;;;-3.02;52.34;102629.00;1773965;79;20210;-59
2022/03/17 06:58:20;;;;;;;;;;;;;;;-3.02;52.03;102624.98;1785368;80;20225;-59
2022/03/17 07:01:25;;;;;;;;;;;;;;;-3.00;52.05;102612.45;1775060;79;20217;-60
2022/03/17 07:04:31;;;;;;;;;;;;;;;-2.92;51.89;102625.20;1757728;81;20243;-60
2022/03/17 07:07:35;;;;;;;;;;;;;;;-2.91;51.52;102629.19;1757683;81;20584;-59
2022/03/17 07:10:41;;;;;;;;;;;;;;;-2.88;51.62;102633.13;1757601;81;20212;-61
2022/03/17 07:13:50;;;;;;;;;;;;;;;-2.87;51.99;102621.48;1757947;81;20221;-58
2022/03/17 07:16:55;;;;;;;;;;;;;;;-2.76;52.30;102618.12;1764438;81;20218;-58
2022/03/17 07:20:00;;;;;;;;;;;;;;;-2.59;52.17;102624.38;1773808;79;20571;-59
2022/03/17 07:23:06;;;;;;;;;;;;;;;-2.46;51.57;102633.44;1774307;81;20211;-58
2022/03/17 07:26:15;;;;;;;;;;;;;;;-2.46;51.17;102640.59;1774902;79;20591;-59
2022/03/17 07:29:29;;;;;;;;;;;;;;;-2.44;50.66;102626.22;1775255;79;20251;-58
2022/03/17 07:32:34;;;;;;;;;;;;;;;-2.29;50.78;102623.60;1775147;81;20822;-52
2022/03/17 07:35:40;;;;;;;;;;;;;;;-2.10;50.34;102620.41;1780988;79;20289;-60
2022/03/17 07:38:49;;;;;;;;;;;;;;;-2.01;50.09;102638.92;1797810;79;20323;-58
2022/03/17 07:41:59;;;;;;;;;;;;;;;-1.96;49.89;102649.08;1774234;81;20211;-64
2022/03/17 07:45:07;;;;;;;;;;;;;;;-1.98;49.73;102624.53;1773207;79;20251;-61
2022/03/17 07:48:29;;;;;;;;;;;;;;;-1.92;49.42;102635.12;1774933;81;20801;-60
2022/03/17 07:51:42;;;;;;;;;;;;;;;-1.91;48.61;102639.11;1775406;81;20264;-60
2022/03/17 07:54:50;;;;;;;;;;;;;;;-1.88;48.29;102626.94;1739601;82;20258;-61
2022/03/17 07:58:01;;;;;;;;;;;;;;;-1.85;48.57;102624.17;1739021;82;20645;-60
2022/03/17 08:01:07;;;;;;;;;;;;;;;-1.80;48.75;102627.61;1738833;81;20565;-61
2022/03/17 08:04:15;;;;;;;;;;;;;;;-1.73;48.66;102634.55;1753695;81;20216;-60
2022/03/17 08:07:21;;;;;;;;;;;;;;;-1.71;48.58;102629.13;1769086;81;20502;-61
2022/03/17 08:10:28;;;;;;;;;;;;;;;-1.66;48.73;102614.67;1769297;81;20211;-60
2022/03/17 08:13:33;;;;;;;;;;;;;;;-1.55;48.54;102630.46;1769844;80;20243;-61
2022/03/17 08:16:39;;;;;;;;;;;;;;;-1.44;48.43;102631.52;1763956;81;20542;-61
2022/03/17 08:19:47;;;;;;;;;;;;;;;-1.40;48.27;102630.03;1739243;81;20242;-62
2022/03/17 08:22:57;;;;;;;;;;;;;;;-1.26;48.76;102629.60;1758754;81;20203;-61
2022/03/17 08:26:03;;;;;;;;;;;;;;;-1.17;48.58;102629.34;1769394;80;20200;-61
2022/03/17 08:29:14;;;;;;;;;;;;;;;-1.09;48.95;102638.91;1770062;81;20532;-61
2022/03/17 08:32:23;;;;;;;;;;;;;;;-0.98;48.57;102630.54;1769725;81;20472;-60
2022/03/17 08:35:35;;;;;;;;;;;;;;;-0.94;48.35;102622.78;1769621;81;20255;-61
2022/03/17 08:38:41;;;;;;;;;;;;;;;-0.93;48.03;102645.58;1769033;81;20584;-61
2022/03/17 08:41:49;;;;;;;;;;;;;;;-0.91;48.34;102632.09;1757898;81;20786;-63
2022/03/17 08:44:55;;;;;;;;;;;;;;;-0.80;48.16;102626.80;1757471;81;20196;-60
2022/03/17 08:51:27;;;;;;;;;;;;;;;-0.81;47.44;102649.70;1761293;81;20244;-60
2022/03/17 08:54:34;;;;;;;;;;;;;;;-0.91;47.86;102644.19;1756591;81;20231;-61
2022/03/17 08:57:49;;;;;;;;;;;;;;;-0.90;47.77;102642.79;1747227;81;20304;-61
2022/03/17 09:01:00;;;;;;;;;;;;;;;-0.84;47.97;102655.17;1757027;81;20217;-59
2022/03/17 09:04:11;;;;;;;;;;;;;;;-0.79;47.84;102657.23;1758490;81;20235;-61
2022/03/17 09:07:20;;;;;;;;;;;;;;;-0.81;47.71;102648.36;1745843;81;20218;-61
2022/03/17 09:10:29;;;;;;;;;;;;;;;-0.77;48.35;102647.31;1746025;81;20247;-63
2022/03/17 09:13:40;;;;;;;;;;;;;;;-0.60;48.20;102667.36;1728701;82;20561;-61
2022/03/17 09:16:47;;;;;;;;;;;;;;;-0.51;47.70;102653.60;1742032;81;20274;-61
2022/03/17 09:19:58;;;;;;;;;;;;;;;-0.48;47.25;102652.19;1766181;81;20252;-60
2022/03/17 09:23:08;;;;;;;;;;;;;;;-0.37;47.57;102647.78;1768108;81;20200;-61
2022/03/17 09:26:19;;;;;;;;;;;;;;;-0.28;47.33;102636.70;1756783;81;20226;-62
2022/03/17 09:29:24;;;;;;;;;;;;;;;-0.25;46.82;102651.39;1737332;82;20210;-60
2022/03/17 09:32:30;;;;;;;;;;;;;;;-0.23;46.83;102649.53;1736755;82;20214;-63
2022/03/17 09:35:37;;;;;;;;;;;;;;;-0.14;46.91;102643.37;1750076;81;20214;-61
2022/03/17 09:39:39;;;;;;;;;;;;;;;-0.07;46.56;102652.12;1747123;81;20214;-63
2022/03/17 09:41:50;;;;;;;;;;;;;;;-0.12;46.00;102646.90;1763870;81;20212;-62
2022/03/17 09:44:57;;;;;;;;;;;;;;;-0.04;46.57;102641.23;1766819;81;20576;-60
2022/03/17 09:48:01;;;;;;;;;;;;;;;0.14;46.89;102647.80;1766209;81;20569;-61
2022/03/17 09:51:06;;;;;;;;;;;;;;;0.28;47.04;102646.38;1737294;81;20262;-61
2022/03/17 09:54:10;;;;;;;;;;;;;;;0.44;46.13;102642.19;1746698;79;20244;-60
2022/03/17 09:57:19;;;;;;;;;;;;;;;0.52;45.80;102634.70;1790943;80;20261;-61
2022/03/17 10:00:23;;;;;;;;;;;;;;;0.50;45.95;102651.38;1794530;79;20596;-62
2022/03/17 10:03:34;;;;;;;;;;;;;;;0.48;46.22;102629.45;1802908;79;20657;-60
2022/03/17 10:06:39;;;;;;;;;;;;;;;0.45;46.12;102640.34;1787191;79;20249;-59
2022/03/17 10:09:44;;;;;;;;;;;;;;;0.38;46.14;102637.00;1773732;79;20217;-60
2022/03/17 10:12:53;;;;;;;;;;;;;;;0.43;46.35;102637.71;1760577;80;20213;-61
2022/03/17 10:16:18;;;;;;;;;;;;;;;0.55;46.00;102625.61;1774599;79;20218;-60
2022/03/17 10:19:24;;;;;;;;;;;;;;;0.69;45.93;102624.61;1774721;79;20558;-61
2022/03/17 10:22:29;;;;;;;;;;;;;;;0.83;45.75;102622.27;1766458;80;20601;-62
2022/03/17 10:25:40;;;;;;;;;;;;;;;0.84;45.33;102612.77;1766487;81;20202;-61
2022/03/17 10:28:47;;;;;;;;;;;;;;;0.90;45.51;102627.38;1775303;81;20209;-61
2022/03/17 10:32:13;;;;;;;;;;;;;;;0.89;45.38;102622.91;1775508;81;20547;-62
2022/03/17 10:35:19;;;;;;;;;;;;;;;0.92;45.16;102617.88;1775428;79;20241;-61
2022/03/17 10:38:27;;;;;;;;;;;;;;;0.81;44.98;102617.42;1784375;79;20557;-61
2022/03/17 10:41:30;;;;;;;;;;;;;;;0.83;46.12;102624.50;1796522;79;20258;-59
2022/03/17 10:44:36;;;;;;;;;;;;;;;0.93;45.92;102617.81;1793923;79;20304;-61
2022/03/17 10:47:46;;;;;;;;;;;;;;;1.04;45.63;102618.73;1778231;80;20540;-60
2022/03/17 10:50:55;;;;;;;;;;;;;;;1.16;45.40;102609.68;1774666;80;20532;-60
2022/03/17 10:54:15;;;;;;;;;;;;;;;1.32;44.99;102612.16;1777946;79;20293;-62
2022/03/17 10:57:23;;;;;;;;;;;;;;;1.38;44.68;102605.16;1761279;80;20276;-61
2022/03/17 11:00:34;;;;;;;;;;;;;;;1.39;44.74;102605.59;1764358;80;20560;-62
2022/03/17 11:03:41;;;;;;;;;;;;;;;1.55;44.15;102593.19;1793634;80;20241;-61
2022/03/17 11:06:46;;;;;;;;;;;;;;;1.82;43.84;102590.27;1793488;80;20222;-61
2022/03/17 11:09:53;;;;;;;;;;;;;;;2.01;43.12;102595.27;1793165;79;20205;-63
2022/03/17 11:12:57;;;;;;;;;;;;;;;2.13;43.10;102590.20;1772228;80;20241;-62
2022/03/17 11:16:17;;;;;;;;;;;;;;;2.28;42.28;102585.94;1792841;80;20205;-62
2022/03/17 11:19:24;;;;;;;;;;;;;;;2.47;42.13;102599.02;1792668;80;20352;-63
2022/03/17 11:22:31;;;;;;;;;;;;;;;2.37;41.29;102608.48;1793207;80;20262;-61
2022/03/17 11:25:36;;;;;;;;;;;;;;;2.50;41.44;102585.35;1793664;80;20525;-61
2022/03/17 11:28:45;;;;;;;;;;;;;;;2.71;42.17;102569.48;1773188;79;20205;-61
2022/03/17 11:32:08;;;;;;;;;;;;;;;2.78;41.63;102584.45;1792720;79;20230;-61
2022/03/17 11:35:32;;;;;;;;;;;;;;;2.66;41.46;102587.75;1778672;79;20221;-61
2022/03/17 11:38:58;;;;;;;;;;;;;;;2.46;42.55;102591.37;1778758;79;20212;-60
2022/03/17 11:42:04;;;;;;;;;;;;;;;2.41;42.55;102585.29;1762365;81;20563;-60
2022/03/17 11:45:24;;;;;;;;;;;;;;;2.34;42.40;102585.19;1787395;79;20553;-59
2022/03/17 11:48:28;;;;;;;;;;;;;;;2.53;42.45;102583.85;1793494;80;20210;-62
2022/03/17 11:51:34;;;;;;;;;;;;;;;2.56;42.21;102580.55;1771239;80;20504;-60
2022/03/17 11:54:39;;;;;;;;;;;;;;;2.62;41.83;102568.55;1792925;80;20245;-60
2022/03/17 11:57:48;;;;;;;;;;;;;;;2.58;42.00;102589.94;1774806;79;20215;-61
2022/03/17 12:01:12;;;;;;;;;;;;;;;2.53;42.13;102584.75;1772829;79;20243;-59
2022/03/17 12:04:18;;;;;;;;;;;;;;;2.46;42.05;102587.78;1788066;79;20213;-60
2022/03/17 12:07:25;;;;;;;;;;;;;;;2.40;41.17;102574.55;1788812;79;20213;-60
2022/03/17 12:11:06;;;;;;;;;;;;;;;2.42;41.28;102578.07;1798559;79;20565;-59
2022/03/17 12:14:28;;;;;;;;;;;;;;;2.48;41.50;102573.26;1783644;79;20223;-62
2022/03/17 12:17:35;;;;;;;;;;;;;;;2.46;41.35;102603.99;1776020;79;20231;-62
2022/03/17 12:20:45;;;;;;;;;;;;;;;2.28;40.85;102592.69;1782070;79;20213;-61
2022/03/17 12:23:55;;;;;;;;;;;;;;;2.19;40.88;102590.41;1771475;81;20507;-60
2022/03/17 12:27:12;;;;;;;;;;;;;;;2.36;41.35;102583.27;1800654;78;20280;-60
2022/03/17 12:30:23;;;;;;;;;;;;;;;2.65;41.15;102581.92;1805154;79;20265;-62
2022/03/17 12:33:31;;;;;;;;;;;;;;;2.94;40.25;102578.72;1805799;79;20201;-62
2022/03/17 12:36:35;;;;;;;;;;;;;;;3.15;39.94;102582.21;1804950;79;20209;-61
2022/03/17 12:39:40;;;;;;;;;;;;;;;3.35;39.60;102590.22;1789364;78;20249;-61
2022/03/17 12:42:48;;;;;;;;;;;;;;;3.46;39.16;102587.85;1775301;79;20266;-60
2022/03/17 12:46:00;;;;;;;;;;;;;;;3.45;38.95;102584.29;1806880;79;20268;-63
2022/03/17 12:49:14;;;;;;;;;;;;;;;3.29;38.57;102599.53;1786504;79;20700;-61
2022/03/17 12:52:25;;;;;;;;;;;;;;;3.01;39.40;102589.66;1802455;79;20233;-62
2022/03/17 12:55:29;;;;;;;;;;;;;;;3.09;40.26;102606.41;1774934;79;20200;-61
2022/03/17 12:58:34;;;;;;;;;;;;;;;3.19;39.74;102596.87;1773673;80;20222;-61
2022/03/17 13:01:41;;;;;;;;;;;;;;;3.30;39.60;102590.95;1792882;79;20263;-64
2022/03/17 13:04:49;;;;;;;;;;;;;;;3.47;40.02;102597.75;1809950;79;20280;-65
2022/03/17 13:07:55;;;;;;;;;;;;;;;3.44;39.51;102612.80;1807027;79;20557;-64
2022/03/17 13:14:28;;;;;;;;;;;;;;;3.10;40.29;102602.73;1784422;79;20215;-66
2022/03/17 13:17:52;;;;;;;;;;;;;;;3.18;40.18;102596.94;1773309;81;20591;-65
2022/03/17 13:21:03;;;;;;;;;;;;;;;3.07;39.99;102612.36;1772381;80;20242;-64
2022/03/17 13:24:21;;;;;;;;;;;;;;;2.97;40.39;102606.51;1771727;81;20215;-63
2022/03/17 13:27:28;;;;;;;;;;;;;;;2.98;40.86;102608.75;1774766;79;20270;-64
2022/03/17 13:30:35;;;;;;;;;;;;;;;3.10;41.07;102612.20;1804757;78;20197;-64
2022/03/17 13:33:41;;;;;;;;;;;;;;;3.24;40.79;102607.00;1793474;79;20546;-61
2022/03/17 13:37:03;;;;;;;;;;;;;;;3.31;40.57;102605.76;1795958;79;20214;-64
2022/03/17 13:40:16;;;;;;;;;;;;;;;3.24;40.26;102605.64;1799552;79;20648;-64
2022/03/17 13:43:20;;;;;;;;;;;;;;;3.11;40.21;102618.01;1794916;79;20243;-62
2022/03/17 13:46:31;;;;;;;;;;;;;;;3.01;40.37;102609.45;1773432;79;20259;-64
2022/03/17 13:49:36;;;;;;;;;;;;;;;2.92;40.46;102607.20;1772881;79;20235;-61
2022/03/17 13:52:41;;;;;;;;;;;;;;;2.95;40.85;102609.75;1791376;79;20205;-64
2022/03/17 13:56:01;;;;;;;;;;;;;;;3.11;41.05;102630.69;1798440;79;20507;-64
2022/03/17 13:59:06;;;;;;;;;;;;;;;3.01;41.04;102597.78;1786917;79;20206;-63
2022/03/17 14:02:19;;;;;;;;;;;;;;;2.81;41.36;102607.30;1765244;81;20229;-63
2022/03/17 14:05:25;;;;;;;;;;;;;;;2.52;41.16;102624.87;1765381;81;20209;-62
2022/03/17 14:08:29;;;;;;;;;;;;;;;2.29;41.82;102626.86;1749082;81;20257;-62
2022/03/17 14:11:34;;;;;;;;;;;;;;;2.25;42.19;102626.61;1738877;82;20251;-64
2022/03/17 14:14:45;;;;;;;;;;;;;;;2.27;42.15;102626.05;1739668;81;20560;-62
2022/03/17 14:17:51;;;;;;;;;;;;;;;2.34;42.53;102624.38;1751850;81;20614;-64
2022/03/17 14:20:58;;;;;;;;;;;;;;;2.34;42.56;102631.13;1763615;81;20516;-64
2022/03/17 14:24:12;;;;;;;;;;;;;;;2.51;42.66;102633.05;1767230;81;20206;-63
2022/03/17 14:27:17;;;;;;;;;;;;;;;2.50;42.42;102631.30;1765847;81;20210;-63
2022/03/17 14:30:24;;;;;;;;;;;;;;;2.34;42.39;102632.94;1767361;80;20529;-65
2022/03/17 14:33:28;;;;;;;;;;;;;;;2.21;42.41;102643.87;1756698;80;20206;-64
2022/03/17 14:36:34;;;;;;;;;;;;;;;2.12;42.42;102639.78;1765150;81;20214;-62
2022/03/17 14:39:43;;;;;;;;;;;;;;;2.19;42.29;102639.05;1765975;80;20555;-61
2022/03/17 14:42:49;;;;;;;;;;;;;;;2.15;42.60;102640.11;1769260;81;20261;-62
2022/03/17 14:45:53;;;;;;;;;;;;;;;2.02;42.92;102637.53;1758459;80;20214;-62
2022/03/17 14:48:59;;;;;;;;;;;;;;;2.09;43.52;102648.02;1763312;80;20177;-63
2022/03/17 14:52:04;;;;;;;;;;;;;;;2.20;43.61;102648.89;1769896;81;20521;-61
2022/03/17 14:55:08;;;;;;;;;;;;;;;2.29;43.55;102659.29;1769803;81;20275;-62
2022/03/17 14:58:12;;;;;;;;;;;;;;;2.32;43.28;102649.23;1769826;81;20210;-67
2022/03/17 15:01:27;;;;;;;;;;;;;;;2.56;43.17;102661.66;1799059;79;20217;-61
2022/03/17 15:04:38;;;;;;;;;;;;;;;2.70;42.42;102661.00;1800202;79;20279;-62
2022/03/17 15:07:47;;;;;;;;;;;;;;;2.79;42.39;102648.44;1801135;79;20576;-62
2022/03/17 15:10:52;;;;;;;;;;;;;;;2.69;42.41;102666.02;1806093;79;20189;-62
2022/03/17 15:13:59;;;;;;;;;;;;;;;2.32;42.67;102660.50;1806489;79;20553;-62
2022/03/17 15:17:03;;;;;;;;;;;;;;;2.08;43.51;102669.70;1804289;79;20210;-67
2022/03/17 15:20:11;;;;;;;;;;;;;;;1.91;43.17;102685.73;1806475;79;20271;-63
2022/03/17 15:23:16;;;;;;;;;;;;;;;1.53;43.58;102663.92;1804475;79;20784;-62
2022/03/17 15:26:21;;;;;;;;;;;;;;;1.38;44.08;102678.47;1773200;81;20243;-61
2022/03/17 15:32:38;;;;;;;;;;;;;;;1.54;44.39;102681.86;1756865;80;20615;-61
2022/03/17 15:35:45;;;;;;;;;;;;;;;1.57;43.96;102693.48;1774095;81;20243;-64
2022/03/17 15:38:48;;;;;;;;;;;;;;;1.28;44.07;102690.14;1786656;79;20252;-61
2022/03/17 15:41:52;;;;;;;;;;;;;;;0.93;44.67;102689.73;1804398;79;20205;-63
2022/03/17 15:44:56;;;;;;;;;;;;;;;0.66;45.17;102704.23;1804567;79;20312;-61
2022/03/17 15:48:02;;;;;;;;;;;;;;;0.46;45.50;102699.56;1804125;79;20197;-66
2022/03/17 15:51:12;;;;;;;;;;;;;;;0.38;45.96;102722.34;1804405;79;20542;-62
2022/03/17 15:54:16;;;;;;;;;;;;;;;0.26;46.19;102706.14;1787442;79;20209;-63
2022/03/17 15:57:20;;;;;;;;;;;;;;;0.18;46.49;102710.02;1805864;79;20261;-63
2022/03/17 16:00:30;;;;;;;;;;;;;;;0.08;46.92;102708.11;1804428;79;20378;-63
2022/03/17 16:03:36;;;;;;;;;;;;;;;0.05;47.68;102713.60;1795948;80;20218;-61
2022/03/17 16:06:40;;;;;;;;;;;;;;;0.10;48.89;102725.11;1795641;80;20253;-62
2022/03/17 16:16:30;;;;;;;;;;;;;;;0.03;50.64;102739.23;1795476;80;20589;-62
2022/03/17 16:19:34;;;;;;;;;;;;;;;-0.08;50.99;102741.90;1795406;78;20202;-61
2022/03/17 16:22:41;;;;;;;;;;;;;;;-0.25;51.04;102745.58;1774354;80;20544;-61
2022/03/17 16:25:46;;;;;;;;;;;;;;;-0.35;51.33;102750.86;1736561;83;20187;-61
2022/03/17 16:28:51;;;;;;;;;;;;;;;-0.44;51.63;102756.52;1714400;84;20256;-64
2022/03/17 16:31:57;;;;;;;;;;;;;;;-0.48;52.11;102762.48;1748011;82;20203;-61
2022/03/17 16:35:02;;;;;;;;;;;;;;;-0.50;52.43;102763.44;1747990;82;20237;-62